createdAt,value
2022-08-08T00:02:31.325Z,27.20
2022-08-08T00:07:57.632Z,27.40
2022-08-08T00:14:17.142Z,27.60
2022-08-08T00:19:18.895Z,27.70
2022-08-08T00:24:33.931Z,27.50
2022-08-08T00:30:04.518Z,27.60
2022-08-08T00:35:24.448Z,28.40
2022-08-08T00:41:12.383Z,28.50
2022-08-08T00:46:17.320Z,28.60
2022-08-08T00:52:08.089Z,28.90
2022-08-08T00:57:58.075Z,28.80
2022-08-08T01:03:59.823Z,28.80
2022-08-08T01:09:35.574Z,29.20
2022-08-08T01:15:43.815Z,29.40
2022-08-08T01:21:36.921Z,29.50
2022-08-08T01:27:07.069Z,29.50
2022-08-08T01:32:37.267Z,29.80
2022-08-08T01:38:12.703Z,30.20
2022-08-08T01:43:38.781Z,30.40
2022-08-08T01:49:06.205Z,30.70
2022-08-08T01:55:25.474Z,31.20
2022-08-08T02:00:44.262Z,31.50
2022-08-08T02:06:32.558Z,31.40
2022-08-08T02:11:59.909Z,31.40
2022-08-08T02:17:43.455Z,31.70
2022-08-08T02:23:00.068Z,31.80
2022-08-08T02:28:34.858Z,31.90
2022-08-08T02:34:09.573Z,32.00
2022-08-08T02:39:42.432Z,32.40
2022-08-08T02:45:18.878Z,32.50
2022-08-08T02:51:38.275Z,32.90
2022-08-08T02:57:40.686Z,32.60
2022-08-08T03:03:03.298Z,32.70
2022-08-08T03:08:22.836Z,33.30
2022-08-08T03:15:58.955Z,33.70
2022-08-08T03:19:50.659Z,33.70
2022-08-08T03:25:01.660Z,34.20
2022-08-08T03:30:11.851Z,34.20
2022-08-08T03:35:30.151Z,33.70
2022-08-08T03:40:41.121Z,33.40
2022-08-08T03:46:05.132Z,33.20
2022-08-08T03:51:19.531Z,33.20
2022-08-08T03:56:46.346Z,33.00
2022-08-08T04:02:13.261Z,33.10
2022-08-08T04:07:18.966Z,33.10
2022-08-08T04:12:27.914Z,33.10
2022-08-08T04:17:46.355Z,33.10
2022-08-08T04:23:03.594Z,33.00
2022-08-08T04:28:40.581Z,33.30
2022-08-08T04:33:42.057Z,33.60
2022-08-08T04:38:57.257Z,33.60
2022-08-08T04:44:16.633Z,34.10
2022-08-08T04:49:29.003Z,34.30
2022-08-08T04:54:50.491Z,35.50
2022-08-08T04:59:59.618Z,36.40
2022-08-08T05:05:06.942Z,35.70
2022-08-08T05:10:28.128Z,35.40
2022-08-08T05:16:55.158Z,35.00
2022-08-08T05:21:04.105Z,35.60
2022-08-08T05:26:14.267Z,36.70
2022-08-08T05:32:03.711Z,35.90
2022-08-08T05:36:50.371Z,37.10
2022-08-08T05:41:59.935Z,39.00
2022-08-08T05:47:08.252Z,36.60
2022-08-08T05:52:32.323Z,35.80
2022-08-08T05:58:04.408Z,36.90
2022-08-08T06:03:24.658Z,36.10
2022-08-08T06:08:40.082Z,36.00
2022-08-08T06:14:12.933Z,34.90
2022-08-08T06:19:27.418Z,31.00
2022-08-08T06:24:35.950Z,28.20
2022-08-08T06:30:20.124Z,31.90
2022-08-08T06:36:06.994Z,36.20
2022-08-08T06:41:15.222Z,39.20
2022-08-08T06:46:24.470Z,39.90
2022-08-08T06:51:47.227Z,42.20
2022-08-08T06:57:02.879Z,42.50
2022-08-08T07:02:27.632Z,39.20
2022-08-08T07:07:47.512Z,36.50
2022-08-08T07:13:09.849Z,36.40
2022-08-08T07:18:49.424Z,38.90
2022-08-08T07:24:32.055Z,41.00
2022-08-08T07:29:59.687Z,41.90
2022-08-08T07:35:11.824Z,41.80
2022-08-08T07:40:29.574Z,38.80
2022-08-08T07:46:05.187Z,36.90
2022-08-08T07:51:24.418Z,36.10
2022-08-08T07:57:01.946Z,36.20
2022-08-08T08:02:36.762Z,35.20
2022-08-08T08:07:40.524Z,36.70
2022-08-08T08:12:58.434Z,39.10
2022-08-08T08:18:14.169Z,41.10
2022-08-08T08:23:21.431Z,41.00
2022-08-08T08:28:35.122Z,39.70
2022-08-08T08:33:43.589Z,37.30
2022-08-08T08:38:50.487Z,35.80
2022-08-08T08:44:14.283Z,32.80
2022-08-08T08:49:22.672Z,30.40
2022-08-08T08:54:38.713Z,28.30
2022-08-08T08:59:59.331Z,27.00
2022-08-08T09:05:29.047Z,26.40
2022-08-08T09:10:42.393Z,26.20
2022-08-08T09:16:03.901Z,26.30
2022-08-08T09:21:56.001Z,26.80
2022-08-08T09:27:19.970Z,27.00
2022-08-08T09:32:36.358Z,27.10
2022-08-08T09:37:58.656Z,27.10
2022-08-08T09:44:05.701Z,27.20
2022-08-08T09:48:51.845Z,27.30
2022-08-08T09:54:11.920Z,27.30
2022-08-08T10:00:02.485Z,27.40
2022-08-08T10:05:22.922Z,27.50
2022-08-08T10:10:32.869Z,27.50
2022-08-08T10:16:00.836Z,27.50
2022-08-08T10:21:26.093Z,27.60
2022-08-08T10:26:58.480Z,27.50
2022-08-08T10:32:28.829Z,27.50
2022-08-08T10:37:38.398Z,27.40
2022-08-08T10:42:46.260Z,27.40
2022-08-08T10:48:01.448Z,27.40
2022-08-08T10:53:13.885Z,27.30
2022-08-08T10:58:20.580Z,27.30
2022-08-08T11:03:36.952Z,27.20
2022-08-08T11:09:14.988Z,27.10
2022-08-08T11:14:27.765Z,27.10
2022-08-08T11:19:38.235Z,27.10
2022-08-08T11:24:50.741Z,27.10
2022-08-08T11:30:20.586Z,27.20
2022-08-08T11:35:43.334Z,27.20
2022-08-08T11:40:52.640Z,27.20
2022-08-08T11:46:13.288Z,27.40
2022-08-08T11:51:30.737Z,27.40
2022-08-08T11:56:45.949Z,27.40
2022-08-08T12:02:31.211Z,27.50
2022-08-08T12:07:57.155Z,27.50
2022-08-08T12:13:10.978Z,27.50
2022-08-08T12:18:24.697Z,27.50
2022-08-08T12:23:43.816Z,27.60
2022-08-08T12:29:00.131Z,27.60
2022-08-08T12:34:06.617Z,27.60
2022-08-08T12:39:15.736Z,27.50
2022-08-08T12:44:33.792Z,27.60
2022-08-08T12:49:45.153Z,27.60
2022-08-08T12:54:51.736Z,27.80
2022-08-08T13:00:04.748Z,27.90
2022-08-08T13:05:26.868Z,27.90
2022-08-08T13:11:00.265Z,28.00
2022-08-08T13:16:25.214Z,27.90
2022-08-08T13:21:49.068Z,27.80
2022-08-08T13:27:04.690Z,27.70
2022-08-08T13:32:11.192Z,27.80
2022-08-08T13:37:51.837Z,27.70
2022-08-08T13:42:49.690Z,27.60
2022-08-08T13:48:04.127Z,27.60
2022-08-08T13:53:24.772Z,27.60
2022-08-08T13:58:33.236Z,27.60
2022-08-08T14:03:54.439Z,27.50
2022-08-08T14:09:24.710Z,27.50
2022-08-08T14:14:47.560Z,27.40
2022-08-08T14:19:57.169Z,27.30
2022-08-08T14:25:15.427Z,27.30
2022-08-08T14:30:24.666Z,27.30
2022-08-08T14:35:36.440Z,27.30
2022-08-08T14:40:46.540Z,27.30
2022-08-08T14:46:03.518Z,27.30
2022-08-08T14:51:11.827Z,27.30
2022-08-08T14:56:25.398Z,27.30
2022-08-08T15:01:37.524Z,27.30
2022-08-08T15:06:47.823Z,27.30
2022-08-08T15:11:58.091Z,27.30
2022-08-08T15:17:04.926Z,27.20
2022-08-08T15:22:23.327Z,27.20
2022-08-08T15:28:04.978Z,27.10
2022-08-08T15:32:56.862Z,27.10
2022-08-08T15:38:03.016Z,27.10
2022-08-08T15:43:35.124Z,27.10
2022-08-08T15:48:36.246Z,27.10
2022-08-08T15:53:49.998Z,27.10
2022-08-08T15:58:56.745Z,27.00
2022-08-08T16:04:02.802Z,27.00
2022-08-08T16:13:11.640Z,27.00
2022-08-08T16:14:34.998Z,27.00
2022-08-08T16:19:59.768Z,27.00
2022-08-08T16:25:06.649Z,26.90
2022-08-08T16:30:16.342Z,27.00
2022-08-08T16:35:31.270Z,27.00
2022-08-08T16:40:37.916Z,27.10
2022-08-08T16:46:37.846Z,27.00
2022-08-08T16:51:12.340Z,27.00
2022-08-08T16:56:38.514Z,27.00
2022-08-08T17:02:07.647Z,27.00
2022-08-08T17:07:31.873Z,27.00
2022-08-08T17:12:38.168Z,27.00
2022-08-08T17:18:02.035Z,26.90
2022-08-08T17:23:16.406Z,26.90
2022-08-08T17:28:34.749Z,27.00
2022-08-08T17:34:48.937Z,27.00
2022-08-08T17:39:45.589Z,27.00
2022-08-08T17:44:37.438Z,27.00
2022-08-08T17:49:45.957Z,27.00
2022-08-08T17:54:56.554Z,27.10
2022-08-08T18:00:02.708Z,27.10
2022-08-08T18:05:10.403Z,27.00
2022-08-08T18:10:31.585Z,27.10
2022-08-08T18:15:37.881Z,27.10
2022-08-08T18:20:59.211Z,27.10
2022-08-08T18:26:05.467Z,27.10
2022-08-08T18:31:12.370Z,27.00
2022-08-08T18:36:23.249Z,27.00
2022-08-08T18:41:45.627Z,27.00
2022-08-08T18:46:58.146Z,27.00
2022-08-08T18:52:04.797Z,27.00
2022-08-08T18:57:11.168Z,27.00
2022-08-08T19:02:28.162Z,27.00
2022-08-08T19:07:37.350Z,27.00
2022-08-08T19:12:44.776Z,26.90
2022-08-08T19:18:30.708Z,26.90
2022-08-08T19:23:25.457Z,26.80
2022-08-08T19:28:36.505Z,26.80
2022-08-08T19:34:04.350Z,26.80
2022-08-08T19:39:09.452Z,26.70
2022-08-08T19:44:26.683Z,26.70
2022-08-08T19:49:43.483Z,26.70
2022-08-08T19:55:14.602Z,26.70
2022-08-08T20:00:29.922Z,26.70
2022-08-08T20:06:16.182Z,26.60
2022-08-08T20:11:03.425Z,26.60
2022-08-08T20:16:09.948Z,26.60
2022-08-08T20:21:16.288Z,26.60
2022-08-08T20:26:33.603Z,26.60
2022-08-08T20:32:07.724Z,26.60
2022-08-08T20:37:09.565Z,26.60
2022-08-08T20:42:17.153Z,26.60
2022-08-08T20:47:24.027Z,26.50
2022-08-08T20:52:32.110Z,26.10
2022-08-08T20:57:43.887Z,25.50
2022-08-08T21:02:53.650Z,25.00
2022-08-08T21:08:36.719Z,24.80
2022-08-08T21:13:29.783Z,24.60
2022-08-08T21:18:46.013Z,24.50
2022-08-08T21:24:02.622Z,24.50
2022-08-08T21:29:19.728Z,24.40
2022-08-08T21:34:29.947Z,24.50
2022-08-08T21:39:54.781Z,24.60
2022-08-08T21:45:44.759Z,24.60
2022-08-08T21:50:27.447Z,24.80
2022-08-08T21:56:24.524Z,24.80
2022-08-08T22:01:04.008Z,25.00
2022-08-08T22:06:12.098Z,25.10
2022-08-08T22:11:51.161Z,25.30
2022-08-08T22:16:44.412Z,25.40
2022-08-08T22:21:53.003Z,25.60
2022-08-08T22:27:01.845Z,25.70
2022-08-08T22:32:09.061Z,25.70
2022-08-08T22:37:48.976Z,25.70
2022-08-08T22:42:42.575Z,25.70
2022-08-08T22:47:52.101Z,25.70
2022-08-08T22:54:32.832Z,25.70
2022-08-08T22:58:31.266Z,25.70
2022-08-08T23:03:54.288Z,25.70
2022-08-08T23:09:02.265Z,25.70
2022-08-08T23:14:15.548Z,25.80
2022-08-08T23:19:21.821Z,25.90
2022-08-08T23:24:28.163Z,25.90
2022-08-08T23:29:42.631Z,26.00
2022-08-08T23:35:01.040Z,26.00
2022-08-08T23:40:14.086Z,26.10
2022-08-08T23:49:02.101Z,26.20
2022-08-08T23:50:46.657Z,26.20
2022-08-08T23:56:03.024Z,26.30
